Aérodrome :
LOGIN :

S'inscrire | Disclaimer

   EN    FR    IT 

 










Légende :    VFR   VFR Marginal   IFR   IFR Intensif   IFR Très Intensif
Visi : 
Plafond : 
>= 8 km
>= 3000ft
5 à 8 km
1000 à 3000 ft
1500m à 5 km
500 à 1000 ft
800 à 1500m
200 à 500 ft
< 800m
< 200 ft
Symboles :   Orages  Brouillard  Fortes neiges  Fortes précipitations  Vent > 20 kt
SIGMETs :   Divers  Orages  Givrage  Turbulence  Onde Orograph.  Cendres Volcan.







- Altitude de l'aérodrome : 265 ft
- Voir les cartes d'approche


LFMC - Le Luc

DERNIER METAR :
  • 211500Z AUTO 28010KT 250V320 9999 ////// 33/15 Q1008

METARs EXPIRÉS :
  • 211430Z AUTO 27009KT 230V290 9999 ////// 33/15 Q1008
  • 211400Z AUTO 22004KT 120V290 9999 ////// 32/17 Q1008
  • 211330Z AUTO 26010KT 230V290 9999 ////// 33/14 Q1009
  • 211300Z AUTO 28009KT 250V320 9999 ////// 32/14 Q1009
  • 211230Z AUTO 26010KT 230V300 9999 ////// 31/15 Q1009

TAF N/A
Pas de NOTAMs connus pour ce terrain.



MET'MAP, la Météo Aéronautique d'un coup d'oeil ! - Copyright ORBIFLY Décembre 2007 - Disclaimer

ORBIFLY MET'MAP TEAM :

Programmation & Développement : Alexandra Zaïnal
Conception & Développement : Baudouin d'Aumeries
Co-Programmation & Développement : Marc-Olivier Méhu
Soutien technique & logistique : Manuel Goepfert

Contact : metmap@orbifly.com




SOURCES & CREDITS :

   NOAA